MUVR/VRA METAR and TAF weather

Enter ICAO airport designator
Station Type Date Time Source
MUVR METAR 2019/06/26 15:50 UTC NOAA

MUVR 261550Z 08008KT 030V100 9999 FEW020 32/24 Q1019


Station Type Date Time Source
MUVR Decoded METAR 2019/06/26 15:50 UTC NOAA

Varadero, Matanzas, Cuba (MUVR) 23-08N 081-17W 3M
Jun 26, 2019 - 11:50 AM EDT / 2019.06.26 1550 UTC
Wind: from the E (080 degrees) at 9 MPH (8 KT) (direction variable):0
Visibility: greater than 7 mile(s):0
Sky conditions: mostly clear
Temperature: 89 F (32 C)
Heat index: 98.4 F (36.9 C):1
Dew Point: 75 F (24 C)
Relative Humidity: 62%
Pressure (altimeter): 30.09 in. Hg (1019 hPa)
ob: MUVR 261550Z 08008KT 030V100 9999 FEW020 32/24 Q1019
cycle: 16

Station Type Date Time Source
MUVR TAF 2019/06/26 12:03 UTC NOAA

TAF MUVR 261100Z 2612/2712 VRB03KT 9000 SCT020
BECMG 2615/2617 05010KT

Example: see airport list